Weather at Cat Cay Airport

Public forecast

Using degrees Celsius for public forecast. Weather courtesy of forecast.io.

Closest aviation weather report (METAR) to Cat Cay Airport

Closest report is Fort Lauderdale Hollywood International Airport, 56.7 nm (105.0 km) WNW.

2024/05/20 23:53 (retrieved 52 minutes ago)

KFLL 202353Z 34008KT 10SM FEW041 FEW050 SCT150 SCT250 31/21 A2983 RMK AO2 SLP101 CB DSNT NE MOV E 60000 T03060211 10344 20261 55004

Closest aviation forecast (TAF) to Cat Cay Airport

Forecast is more than 12 hours old.

Closest forecast is Homestead ARB Airport, 60.2 nm (111.4 km) W.

2024/05/19 19:00 (retrieved 1 day ago)

TAF KHST 191900Z 1919/2101 21012KT 9999 SCT035 SCT180 QNH2986INS TEMPO 1920/1923 9000 -SHRA VCTS BKN025CB BECMG 1923/1924 25009KT 9999 NSW SCT025 SCT050 BKN120 QNH2985INS TEMPO 2010/2015 8000 -SHRA VCTS BKN020CB BKN080 BECMG 2014/2015 26010G15KT 9999 VCSH SCT025 BKN050 QNH2984INS BECMG 2022/2023 29009KT 9999 VCSH SCT025 BKN050 QNH2984INS TX35/1919Z TN25/2011Z